createdAt,value
2022-12-02T04:56:49.585Z,13.13
2022-12-02T04:59:16.061Z,12.82
2022-12-02T05:01:42.519Z,12.43
2022-12-02T05:04:11.897Z,12.35
2022-12-02T05:06:38.418Z,12.40
2022-12-02T05:09:04.900Z,11.77
2022-12-02T05:11:36.106Z,11.90
2022-12-02T05:14:03.571Z,11.68
2022-12-02T05:16:30.077Z,12.10
2022-12-02T05:18:56.658Z,11.75
2022-12-02T05:21:23.122Z,13.77
2022-12-02T05:23:49.623Z,11.57
2022-12-02T05:26:16.138Z,11.93
2022-12-02T05:28:42.640Z,12.23
2022-12-02T05:31:09.223Z,12.93
2022-12-02T05:33:35.711Z,11.53
2022-12-02T05:36:02.187Z,11.07
2022-12-02T05:38:28.649Z,11.15
2022-12-02T05:40:58.212Z,10.60
2022-12-02T05:43:26.334Z,11.82
2022-12-02T05:45:57.222Z,12.67
2022-12-02T05:48:25.461Z,12.70
2022-12-02T05:50:53.608Z,11.50
2022-12-02T05:53:25.823Z,11.85
2022-12-02T05:55:53.977Z,10.95
2022-12-02T05:58:20.561Z,11.57
2022-12-02T06:00:54.886Z,11.93
2022-12-02T06:03:21.761Z,11.98
2022-12-02T06:05:49.339Z,12.45
2022-12-02T06:08:26.729Z,12.80
2022-12-02T06:10:56.099Z,12.27
2022-12-02T06:13:25.793Z,12.20
2022-12-02T06:15:53.242Z,11.88
2022-12-02T06:18:22.786Z,12.13
2022-12-02T06:20:57.674Z,13.00
2022-12-02T06:23:27.108Z,12.03
2022-12-02T06:25:54.502Z,12.82
2022-12-02T06:28:26.807Z,13.15
2022-12-02T06:31:02.415Z,11.88
2022-12-02T06:33:33.914Z,13.82
2022-12-02T06:36:04.066Z,12.47
2022-12-02T06:38:43.891Z,12.10
2022-12-02T06:41:37.551Z,11.68
2022-12-02T06:44:52.705Z,12.25
2022-12-02T06:47:37.701Z,12.05
2022-12-02T06:50:07.378Z,12.60
2022-12-02T06:52:45.013Z,12.63
2022-12-02T06:55:33.833Z,12.30
2022-12-02T06:58:22.005Z,13.05
2022-12-02T07:00:49.188Z,12.82
2022-12-02T07:03:31.174Z,11.03
2022-12-02T07:06:10.443Z,12.30
2022-12-02T07:08:36.891Z,12.40
2022-12-02T07:11:03.325Z,12.48
2022-12-02T07:13:29.834Z,12.98
2022-12-02T07:15:56.385Z,11.90
2022-12-02T07:18:22.933Z,13.60
2022-12-02T07:20:49.878Z,12.50
2022-12-02T07:23:22.188Z,13.25
2022-12-02T07:25:59.971Z,13.45
2022-12-02T07:28:36.619Z,12.70
2022-12-02T07:31:24.894Z,11.32
2022-12-02T07:33:52.062Z,11.73
2022-12-02T07:36:18.850Z,12.27
2022-12-02T07:41:36.175Z,11.60
2022-12-02T07:44:03.738Z,12.60
2022-12-02T07:46:30.322Z,12.75
2022-12-02T07:48:57.425Z,13.30
2022-12-02T07:51:24.785Z,12.95
2022-12-02T07:53:51.255Z,12.60
2022-12-02T07:56:17.785Z,12.30
2022-12-02T07:59:10.654Z,13.45
2022-12-02T08:01:31.012Z,12.43
2022-12-02T08:03:57.493Z,12.68
2022-12-02T08:06:23.993Z,13.23
2022-12-02T08:08:50.438Z,13.75
2022-12-02T08:11:16.979Z,12.70
2022-12-02T08:13:43.460Z,12.45
2022-12-02T08:16:11.294Z,13.00
2022-12-02T08:18:38.203Z,14.27
2022-12-02T08:21:08.679Z,13.25
2022-12-02T08:23:37.168Z,13.68
2022-12-02T08:26:04.116Z,13.60
2022-12-02T08:28:30.615Z,13.18
2022-12-02T08:30:57.175Z,13.87
2022-12-02T08:33:26.394Z,13.45
2022-12-02T08:35:52.910Z,13.95
2022-12-02T08:38:19.760Z,13.70
2022-12-02T08:40:46.271Z,14.27
2022-12-02T08:43:12.789Z,13.43
2022-12-02T08:45:39.644Z,14.68
2022-12-02T08:48:06.213Z,14.00
2022-12-02T08:50:32.731Z,14.18
2022-12-02T08:52:59.240Z,12.98
2022-12-02T08:55:26.879Z,14.70
2022-12-02T08:57:53.785Z,13.10
2022-12-02T09:00:20.439Z,13.50
2022-12-02T09:02:46.995Z,12.48
2022-12-02T09:05:13.830Z,13.05
2022-12-02T09:07:40.421Z,13.80
2022-12-02T09:10:10.053Z,12.75
2022-12-02T09:12:36.526Z,14.15
2022-12-02T09:15:03.205Z,14.38
2022-12-02T09:17:29.720Z,14.68
2022-12-02T09:19:56.242Z,15.03
2022-12-02T09:22:23.887Z,12.43
2022-12-02T09:24:50.717Z,13.65
2022-12-02T09:27:18.578Z,13.52
2022-12-02T09:29:45.053Z,13.48
2022-12-02T09:32:11.558Z,13.83
2022-12-02T09:34:38.180Z,14.25
2022-12-02T09:37:04.698Z,13.63
2022-12-02T09:39:37.191Z,13.32
2022-12-02T09:42:06.956Z,13.80
2022-12-02T09:44:33.646Z,14.27
2022-12-02T09:47:00.267Z,13.02
2022-12-02T09:49:26.842Z,13.38
2022-12-02T09:51:57.533Z,13.40
2022-12-02T09:54:24.030Z,13.60
2022-12-02T09:56:50.548Z,12.80
2022-12-02T09:59:17.822Z,13.07
2022-12-02T10:01:46.945Z,12.05
2022-12-02T10:04:17.778Z,13.05
2022-12-02T10:06:44.493Z,12.77
2022-12-02T10:09:18.158Z,13.37
2022-12-02T10:11:44.774Z,11.35
2022-12-02T10:14:15.002Z,13.00
2022-12-02T10:16:42.074Z,12.93
2022-12-02T10:19:13.442Z,12.68
2022-12-02T10:21:40.275Z,12.43
2022-12-02T10:24:10.157Z,13.85
2022-12-02T10:26:52.631Z,12.20
2022-12-02T10:29:30.202Z,12.32
2022-12-02T10:32:16.643Z,11.82
2022-12-02T10:34:43.169Z,13.93
2022-12-02T10:37:25.805Z,13.05
2022-12-02T10:40:21.176Z,14.07
2022-12-02T10:42:47.712Z,12.25
2022-12-02T10:45:22.459Z,12.68
2022-12-02T10:47:50.196Z,13.00
2022-12-02T10:50:18.489Z,13.95
2022-12-02T10:52:57.191Z,13.93
2022-12-02T10:55:24.277Z,14.40
2022-12-02T10:57:51.162Z,13.10
2022-12-02T11:00:21.075Z,13.43
2022-12-02T11:02:59.883Z,13.70
2022-12-02T11:05:32.603Z,13.90
2022-12-02T11:08:07.189Z,15.43
2022-12-02T11:10:39.492Z,13.57
2022-12-02T11:13:18.122Z,14.83
2022-12-02T11:15:51.194Z,14.55
2022-12-02T11:18:30.381Z,12.95
2022-12-02T11:21:03.228Z,13.95
2022-12-02T11:23:30.917Z,13.88
2022-12-02T11:26:00.697Z,13.37
2022-12-02T11:28:30.228Z,14.43
2022-12-02T11:31:15.819Z,13.30
2022-12-02T11:33:53.855Z,14.32
2022-12-02T11:36:24.315Z,13.80
2022-12-02T11:38:50.772Z,13.17
2022-12-02T11:41:19.787Z,13.27
2022-12-02T11:43:46.230Z,14.13
2022-12-02T11:46:24.135Z,15.57
2022-12-02T11:48:55.842Z,13.45
2022-12-02T11:51:41.526Z,14.20
2022-12-02T11:54:14.004Z,14.52
2022-12-02T11:56:41.188Z,15.00
2022-12-02T11:59:28.032Z,14.82
2022-12-02T12:02:21.962Z,13.63
2022-12-02T12:05:09.520Z,14.57
2022-12-02T12:07:50.720Z,14.13
2022-12-02T12:10:30.730Z,14.90
2022-12-02T12:13:13.665Z,13.38
2022-12-02T12:15:50.561Z,14.35
2022-12-02T12:18:39.203Z,14.63
2022-12-02T12:21:07.154Z,14.65
2022-12-02T12:23:39.519Z,14.75
2022-12-02T12:26:07.217Z,13.73
2022-12-02T12:28:36.503Z,15.50
2022-12-02T12:31:05.997Z,14.77
2022-12-02T12:33:32.655Z,14.55
2022-12-02T12:35:59.707Z,14.05
2022-12-02T12:38:30.643Z,14.43
2022-12-02T12:40:58.199Z,14.98
2022-12-02T12:43:25.060Z,15.10
2022-12-02T12:45:51.842Z,14.20
2022-12-02T12:48:18.449Z,15.88
2022-12-02T12:50:44.948Z,14.65
2022-12-02T12:53:11.546Z,15.05
2022-12-02T12:55:38.033Z,15.97
2022-12-02T12:58:04.565Z,13.77
2022-12-02T13:00:31.023Z,14.93
2022-12-02T13:02:57.642Z,16.17
2022-12-02T13:05:24.219Z,15.43
2022-12-02T13:07:50.840Z,14.20
2022-12-02T13:10:18.367Z,15.07
2022-12-02T13:12:44.903Z,15.10
2022-12-02T13:15:11.445Z,15.60
2022-12-02T13:17:38.147Z,14.55
2022-12-02T13:20:06.187Z,16.00
2022-12-02T13:22:32.699Z,14.60
2022-12-02T13:24:59.339Z,15.15
2022-12-02T13:27:27.174Z,14.30
2022-12-02T13:29:53.943Z,14.68
2022-12-02T13:32:20.597Z,13.03
2022-12-02T13:34:47.446Z,14.60
2022-12-02T13:37:13.945Z,14.45
2022-12-02T13:39:40.396Z,14.80
2022-12-02T13:42:06.884Z,14.30
2022-12-02T13:44:33.384Z,16.23
2022-12-02T13:46:59.859Z,15.85
2022-12-02T13:49:26.391Z,15.45
2022-12-02T13:51:52.847Z,14.63
2022-12-02T13:54:25.306Z,15.52
2022-12-02T13:56:52.050Z,15.27
2022-12-02T13:59:18.574Z,15.23
2022-12-02T14:01:45.180Z,15.10
2022-12-02T14:04:11.807Z,14.02
2022-12-02T14:06:38.294Z,15.43
2022-12-02T14:09:04.749Z,16.03
2022-12-02T14:11:31.191Z,14.98
2022-12-02T14:13:57.659Z,14.50
2022-12-02T14:16:24.203Z,14.27
2022-12-02T14:18:56.853Z,14.50
2022-12-02T14:21:24.547Z,13.50
2022-12-02T14:23:51.066Z,13.73
2022-12-02T14:26:17.714Z,15.48
2022-12-02T14:28:44.202Z,14.95
2022-12-02T14:31:20.205Z,14.57
2022-12-02T14:34:10.862Z,14.30
2022-12-02T14:36:38.159Z,15.10
2022-12-02T14:39:04.664Z,14.10
2022-12-02T14:41:31.160Z,15.38
2022-12-02T14:43:57.686Z,15.75
2022-12-02T14:46:26.266Z,15.60
2022-12-02T14:48:59.264Z,15.80
2022-12-02T14:51:33.777Z,15.43
2022-12-02T14:54:00.271Z,15.05
2022-12-02T14:56:26.742Z,15.25
2022-12-02T14:58:53.221Z,16.10
2022-12-02T15:01:19.752Z,15.73
2022-12-02T15:03:46.352Z,15.85
2022-12-02T15:06:12.838Z,15.68
2022-12-02T15:08:39.348Z,14.70
2022-12-02T15:11:05.935Z,15.33
2022-12-02T15:13:32.419Z,14.70
2022-12-02T15:16:02.954Z,15.43
2022-12-02T15:18:29.823Z,15.43
2022-12-02T15:20:56.345Z,15.70
2022-12-02T15:23:22.831Z,15.87
2022-12-02T15:25:49.390Z,15.98
2022-12-02T15:28:15.901Z,16.98
2022-12-02T15:30:42.400Z,16.95
2022-12-02T15:33:08.849Z,15.65
2022-12-02T15:35:35.307Z,17.20
2022-12-02T15:38:01.781Z,16.90
2022-12-02T15:40:28.323Z,16.30
2022-12-02T15:42:54.775Z,18.60
2022-12-02T15:45:22.280Z,16.27
2022-12-02T15:47:48.783Z,16.50
2022-12-02T15:50:15.294Z,16.75
2022-12-02T15:52:41.783Z,16.33
2022-12-02T15:55:08.550Z,18.25
2022-12-02T15:57:35.029Z,16.08
2022-12-02T16:00:02.098Z,17.90
2022-12-02T16:02:28.646Z,17.25
2022-12-02T16:04:55.236Z,16.00
2022-12-02T16:07:21.690Z,16.77
2022-12-02T16:09:48.206Z,16.65
2022-12-02T16:12:14.710Z,16.07
2022-12-02T16:14:41.216Z,16.13
2022-12-02T16:17:07.741Z,17.33
2022-12-02T16:19:34.216Z,16.45
2022-12-02T16:22:00.739Z,15.52
2022-12-02T16:24:27.202Z,15.77
2022-12-02T16:26:55.649Z,17.00
2022-12-02T16:29:22.385Z,16.65
2022-12-02T16:31:49.081Z,16.90
2022-12-02T16:34:15.601Z,16.38
2022-12-02T16:36:42.086Z,16.20
2022-12-02T16:39:11.643Z,15.73
2022-12-02T16:41:38.166Z,15.50
2022-12-02T16:44:04.870Z,15.43
2022-12-02T16:46:33.302Z,16.00
2022-12-02T16:49:00.292Z,16.30
2022-12-02T16:51:26.776Z,15.80
2022-12-02T16:53:53.229Z,15.25
2022-12-02T16:56:19.686Z,16.40
2022-12-02T16:58:46.171Z,15.68
2022-12-02T17:01:12.945Z,16.43
2022-12-02T17:03:39.491Z,15.80
2022-12-02T17:06:06.477Z,18.13
2022-12-02T17:08:32.930Z,16.27
2022-12-02T17:10:59.430Z,17.30
2022-12-02T17:13:25.906Z,16.70
2022-12-02T17:15:52.474Z,17.40
2022-12-02T17:18:18.918Z,16.50
2022-12-02T17:20:45.395Z,16.55
2022-12-02T17:23:11.849Z,14.95
2022-12-02T17:25:38.381Z,16.43
2022-12-02T17:28:05.004Z,15.95
2022-12-02T17:30:31.585Z,16.35
2022-12-02T17:32:58.079Z,15.90
2022-12-02T17:35:24.920Z,16.48
2022-12-02T17:37:51.376Z,16.93
2022-12-02T17:40:17.946Z,17.65
2022-12-02T17:42:44.474Z,17.50
2022-12-02T17:45:11.439Z,17.80
2022-12-02T17:47:37.939Z,16.88
2022-12-02T17:50:04.887Z,17.67
2022-12-02T17:52:31.474Z,16.35
2022-12-02T17:54:57.970Z,17.77
2022-12-02T17:57:24.777Z,17.70
2022-12-02T17:59:51.364Z,18.08
2022-12-02T18:02:18.093Z,18.37
2022-12-02T18:04:45.008Z,20.58
2022-12-02T18:07:11.986Z,18.88
2022-12-02T18:09:39.423Z,19.27
2022-12-02T18:12:07.060Z,18.55
2022-12-02T18:14:33.754Z,18.37
2022-12-02T18:17:00.401Z,20.55
2022-12-02T18:19:27.402Z,16.48
2022-12-02T18:21:53.902Z,18.83
2022-12-02T18:24:20.379Z,18.23
2022-12-02T18:26:46.933Z,20.33
2022-12-02T18:29:13.428Z,19.60
2022-12-02T18:31:40.160Z,19.00
2022-12-02T18:34:06.637Z,19.75
2022-12-02T18:36:33.078Z,19.88
2022-12-02T18:38:59.556Z,21.43
2022-12-02T18:41:26.018Z,18.15
2022-12-02T18:43:52.506Z,17.45
2022-12-02T18:46:18.990Z,17.63
2022-12-02T18:48:45.478Z,16.02
2022-12-02T18:51:11.916Z,17.20
2022-12-02T18:53:38.394Z,19.33
2022-12-02T18:56:05.188Z,17.40
2022-12-02T18:58:31.680Z,18.17
2022-12-02T19:00:58.209Z,18.30
2022-12-02T19:03:24.822Z,17.93
2022-12-02T19:05:51.369Z,17.45
2022-12-02T19:08:17.877Z,19.95
2022-12-02T19:10:44.346Z,18.65
2022-12-02T19:13:10.858Z,18.17
2022-12-02T19:15:38.724Z,17.33
2022-12-02T19:18:05.670Z,16.23
2022-12-02T19:20:32.148Z,18.20
2022-12-02T19:22:58.631Z,17.17
2022-12-02T19:25:28.531Z,18.27
2022-12-02T19:27:58.330Z,17.90
2022-12-02T19:30:26.124Z,18.48
2022-12-02T19:32:52.725Z,18.17
2022-12-02T19:35:19.444Z,18.30
2022-12-02T19:37:46.066Z,17.73
2022-12-02T19:40:13.112Z,17.83
2022-12-02T19:42:39.589Z,18.35
2022-12-02T19:45:06.856Z,19.10
2022-12-02T19:47:33.378Z,18.65
2022-12-02T19:49:59.858Z,19.08
2022-12-02T19:52:26.373Z,19.20
2022-12-02T19:54:53.113Z,17.13
2022-12-02T19:57:19.935Z,17.63
2022-12-02T19:59:46.413Z,17.40
2022-12-02T20:02:12.944Z,18.88
2022-12-02T20:04:42.298Z,17.73
2022-12-02T20:07:09.414Z,18.92
2022-12-02T20:09:36.014Z,18.60
2022-12-02T20:12:02.563Z,18.10
2022-12-02T20:14:29.111Z,18.75
2022-12-02T20:16:55.609Z,21.17
2022-12-02T20:19:22.143Z,17.35
2022-12-02T20:21:48.652Z,16.40
2022-12-02T20:24:15.614Z,17.70
2022-12-02T20:26:42.075Z,17.08
2022-12-02T20:29:10.480Z,17.83
2022-12-02T20:31:37.026Z,17.15
2022-12-02T20:34:03.688Z,17.60
2022-12-02T20:36:30.138Z,17.45
2022-12-02T20:38:56.619Z,17.75
2022-12-02T20:41:23.082Z,17.60
2022-12-02T20:43:49.682Z,16.40
2022-12-02T20:46:16.272Z,17.92
2022-12-02T20:48:43.774Z,17.23
2022-12-02T20:51:10.265Z,16.38
2022-12-02T20:53:36.746Z,16.60
2022-12-02T20:56:03.335Z,16.23
2022-12-02T20:58:29.878Z,15.77
2022-12-02T21:00:56.401Z,16.98
2022-12-02T21:03:22.978Z,17.15
2022-12-02T21:05:49.469Z,14.93
